sensor_id;sensor_type;location;lat;lon;timestamp;P1;durP1;ratioP1;P2;durP2;ratioP2
4547;SDS011;2286;51.570;7.090;2022-07-29T00:01:44;3.70;;;2.30;;
4547;SDS011;2286;51.570;7.090;2022-07-29T00:04:11;6.73;;;1.30;;
4547;SDS011;2286;51.570;7.090;2022-07-29T00:06:38;2.30;;;1.30;;
4547;SDS011;2286;51.570;7.090;2022-07-29T00:09:05;4.50;;;1.37;;
4547;SDS011;2286;51.570;7.090;2022-07-29T00:11:33;3.00;;;1.50;;
4547;SDS011;2286;51.570;7.090;2022-07-29T00:14:00;12.40;;;1.77;;
4547;SDS011;2286;51.570;7.090;2022-07-29T00:16:28;9.23;;;1.60;;
4547;SDS011;2286;51.570;7.090;2022-07-29T00:18:55;3.87;;;1.30;;
4547;SDS011;2286;51.570;7.090;2022-07-29T00:21:21;3.67;;;1.27;;
4547;SDS011;2286;51.570;7.090;2022-07-29T00:23:48;2.00;;;1.33;;
4547;SDS011;2286;51.570;7.090;2022-07-29T00:26:15;4.80;;;1.37;;
4547;SDS011;2286;51.570;7.090;2022-07-29T00:28:42;5.00;;;1.63;;
4547;SDS011;2286;51.570;7.090;2022-07-29T00:31:09;2.97;;;1.60;;
4547;SDS011;2286;51.570;7.090;2022-07-29T00:33:37;4.30;;;1.67;;
4547;SDS011;2286;51.570;7.090;2022-07-29T00:36:04;1.77;;;1.27;;
4547;SDS011;2286;51.570;7.090;2022-07-29T00:38:30;3.30;;;1.30;;
4547;SDS011;2286;51.570;7.090;2022-07-29T00:40:57;4.53;;;1.33;;
4547;SDS011;2286;51.570;7.090;2022-07-29T00:43:24;5.33;;;1.40;;
4547;SDS011;2286;51.570;7.090;2022-07-29T00:45:51;4.07;;;1.30;;
4547;SDS011;2286;51.570;7.090;2022-07-29T00:48:18;4.27;;;1.50;;
4547;SDS011;2286;51.570;7.090;2022-07-29T00:50:46;4.47;;;1.30;;
4547;SDS011;2286;51.570;7.090;2022-07-29T00:53:15;3.60;;;1.80;;
4547;SDS011;2286;51.570;7.090;2022-07-29T00:55:42;3.83;;;1.70;;
4547;SDS011;2286;51.570;7.090;2022-07-29T00:58:09;2.40;;;1.23;;
4547;SDS011;2286;51.570;7.090;2022-07-29T01:00:38;2.73;;;1.13;;
4547;SDS011;2286;51.570;7.090;2022-07-29T01:03:05;4.40;;;1.20;;
4547;SDS011;2286;51.570;7.090;2022-07-29T01:05:32;2.47;;;1.77;;
4547;SDS011;2286;51.570;7.090;2022-07-29T01:08:02;7.40;;;1.50;;
4547;SDS011;2286;51.570;7.090;2022-07-29T01:10:29;1.97;;;1.33;;
4547;SDS011;2286;51.570;7.090;2022-07-29T01:12:58;3.57;;;1.47;;
4547;SDS011;2286;51.570;7.090;2022-07-29T01:15:27;2.27;;;1.10;;
4547;SDS011;2286;51.570;7.090;2022-07-29T01:17:57;2.33;;;1.50;;
4547;SDS011;2286;51.570;7.090;2022-07-29T01:20:31;5.47;;;1.13;;
4547;SDS011;2286;51.570;7.090;2022-07-29T01:23:33;4.10;;;1.60;;
4547;SDS011;2286;51.570;7.090;2022-07-29T01:26:27;5.20;;;1.40;;
4547;SDS011;2286;51.570;7.090;2022-07-29T01:29:09;2.43;;;1.30;;
4547;SDS011;2286;51.570;7.090;2022-07-29T01:31:42;6.00;;;1.20;;
4547;SDS011;2286;51.570;7.090;2022-07-29T01:34:15;2.30;;;1.53;;
4547;SDS011;2286;51.570;7.090;2022-07-29T01:36:47;2.73;;;1.37;;
4547;SDS011;2286;51.570;7.090;2022-07-29T01:39:18;4.33;;;1.50;;
4547;SDS011;2286;51.570;7.090;2022-07-29T01:41:50;5.93;;;1.40;;
4547;SDS011;2286;51.570;7.090;2022-07-29T01:44:26;3.27;;;1.20;;
4547;SDS011;2286;51.570;7.090;2022-07-29T01:46:58;3.73;;;1.40;;
4547;SDS011;2286;51.570;7.090;2022-07-29T01:49:35;3.53;;;1.40;;
4547;SDS011;2286;51.570;7.090;2022-07-29T01:52:07;2.60;;;1.60;;
4547;SDS011;2286;51.570;7.090;2022-07-29T01:54:40;3.20;;;1.50;;
4547;SDS011;2286;51.570;7.090;2022-07-29T01:57:12;1.57;;;1.37;;
4547;SDS011;2286;51.570;7.090;2022-07-29T01:59:43;3.93;;;1.40;;
4547;SDS011;2286;51.570;7.090;2022-07-29T02:02:12;4.47;;;1.47;;
4547;SDS011;2286;51.570;7.090;2022-07-29T02:04:41;3.33;;;1.57;;
4547;SDS011;2286;51.570;7.090;2022-07-29T02:07:11;2.57;;;1.40;;
4547;SDS011;2286;51.570;7.090;2022-07-29T02:09:42;1.67;;;1.07;;
4547;SDS011;2286;51.570;7.090;2022-07-29T02:12:12;3.63;;;1.30;;
4547;SDS011;2286;51.570;7.090;2022-07-29T02:14:42;3.03;;;1.30;;
4547;SDS011;2286;51.570;7.090;2022-07-29T02:17:13;5.50;;;1.50;;
4547;SDS011;2286;51.570;7.090;2022-07-29T02:19:47;3.13;;;1.73;;
4547;SDS011;2286;51.570;7.090;2022-07-29T02:22:14;5.77;;;1.60;;
4547;SDS011;2286;51.570;7.090;2022-07-29T02:24:44;3.00;;;1.00;;
4547;SDS011;2286;51.570;7.090;2022-07-29T02:27:12;5.37;;;1.53;;
4547;SDS011;2286;51.570;7.090;2022-07-29T02:29:41;2.50;;;1.70;;
4547;SDS011;2286;51.570;7.090;2022-07-29T02:32:10;3.00;;;1.30;;
4547;SDS011;2286;51.570;7.090;2022-07-29T02:34:39;3.57;;;1.60;;
4547;SDS011;2286;51.570;7.090;2022-07-29T02:37:07;1.83;;;1.30;;
4547;SDS011;2286;51.570;7.090;2022-07-29T02:39:36;10.10;;;1.70;;
4547;SDS011;2286;51.570;7.090;2022-07-29T02:42:05;2.90;;;1.50;;
4547;SDS011;2286;51.570;7.090;2022-07-29T02:44:36;2.27;;;1.63;;
4547;SDS011;2286;51.570;7.090;2022-07-29T02:47:04;3.73;;;1.53;;
4547;SDS011;2286;51.570;7.090;2022-07-29T02:49:38;7.13;;;1.30;;
4547;SDS011;2286;51.570;7.090;2022-07-29T02:52:09;5.53;;;1.60;;
4547;SDS011;2286;51.570;7.090;2022-07-29T02:54:42;2.87;;;1.57;;
4547;SDS011;2286;51.570;7.090;2022-07-29T02:57:14;2.20;;;1.40;;
4547;SDS011;2286;51.570;7.090;2022-07-29T02:59:46;4.73;;;1.93;;
4547;SDS011;2286;51.570;7.090;2022-07-29T03:02:16;2.17;;;1.40;;
4547;SDS011;2286;51.570;7.090;2022-07-29T03:04:44;3.23;;;1.50;;
4547;SDS011;2286;51.570;7.090;2022-07-29T03:07:14;2.07;;;1.20;;
4547;SDS011;2286;51.570;7.090;2022-07-29T03:09:44;5.13;;;1.63;;
4547;SDS011;2286;51.570;7.090;2022-07-29T03:12:12;5.17;;;1.23;;
4547;SDS011;2286;51.570;7.090;2022-07-29T03:14:40;1.80;;;1.30;;
4547;SDS011;2286;51.570;7.090;2022-07-29T03:17:08;2.63;;;1.40;;
4547;SDS011;2286;51.570;7.090;2022-07-29T03:19:36;5.60;;;1.53;;
4547;SDS011;2286;51.570;7.090;2022-07-29T03:22:04;7.03;;;1.87;;
4547;SDS011;2286;51.570;7.090;2022-07-29T03:24:32;3.97;;;1.47;;
4547;SDS011;2286;51.570;7.090;2022-07-29T03:27:01;3.47;;;1.50;;
4547;SDS011;2286;51.570;7.090;2022-07-29T03:29:29;2.60;;;1.60;;
4547;SDS011;2286;51.570;7.090;2022-07-29T03:31:56;7.37;;;1.60;;
4547;SDS011;2286;51.570;7.090;2022-07-29T03:34:22;4.97;;;2.07;;
4547;SDS011;2286;51.570;7.090;2022-07-29T03:36:50;6.83;;;1.97;;
4547;SDS011;2286;51.570;7.090;2022-07-29T03:39:20;3.13;;;1.70;;
4547;SDS011;2286;51.570;7.090;2022-07-29T03:41:51;2.53;;;1.60;;
4547;SDS011;2286;51.570;7.090;2022-07-29T03:44:21;3.60;;;1.53;;
4547;SDS011;2286;51.570;7.090;2022-07-29T03:46:50;4.43;;;1.40;;
4547;SDS011;2286;51.570;7.090;2022-07-29T03:49:19;3.53;;;1.40;;
4547;SDS011;2286;51.570;7.090;2022-07-29T03:51:47;3.97;;;1.17;;
4547;SDS011;2286;51.570;7.090;2022-07-29T03:54:14;4.47;;;1.83;;
4547;SDS011;2286;51.570;7.090;2022-07-29T03:56:43;8.63;;;2.10;;
4547;SDS011;2286;51.570;7.090;2022-07-29T03:59:12;2.50;;;1.83;;
4547;SDS011;2286;51.570;7.090;2022-07-29T04:01:41;5.53;;;1.67;;
4547;SDS011;2286;51.570;7.090;2022-07-29T04:04:08;4.80;;;1.43;;
4547;SDS011;2286;51.570;7.090;2022-07-29T04:06:39;1.93;;;1.53;;
4547;SDS011;2286;51.570;7.090;2022-07-29T04:09:06;7.20;;;1.43;;
4547;SDS011;2286;51.570;7.090;2022-07-29T04:11:33;11.63;;;1.93;;
4547;SDS011;2286;51.570;7.090;2022-07-29T04:14:02;7.60;;;1.30;;
4547;SDS011;2286;51.570;7.090;2022-07-29T04:16:29;4.70;;;1.30;;
4547;SDS011;2286;51.570;7.090;2022-07-29T04:18:56;4.67;;;1.73;;
4547;SDS011;2286;51.570;7.090;2022-07-29T04:21:23;3.80;;;1.40;;
4547;SDS011;2286;51.570;7.090;2022-07-29T04:23:50;4.80;;;1.27;;
4547;SDS011;2286;51.570;7.090;2022-07-29T04:26:17;3.60;;;1.53;;
4547;SDS011;2286;51.570;7.090;2022-07-29T04:28:44;2.80;;;1.60;;
4547;SDS011;2286;51.570;7.090;2022-07-29T04:31:13;5.10;;;1.47;;
4547;SDS011;2286;51.570;7.090;2022-07-29T04:33:40;4.90;;;1.37;;
4547;SDS011;2286;51.570;7.090;2022-07-29T04:36:07;4.87;;;1.97;;
4547;SDS011;2286;51.570;7.090;2022-07-29T04:38:35;2.77;;;1.50;;
4547;SDS011;2286;51.570;7.090;2022-07-29T04:41:03;5.17;;;1.77;;
4547;SDS011;2286;51.570;7.090;2022-07-29T04:43:30;3.33;;;1.47;;
4547;SDS011;2286;51.570;7.090;2022-07-29T04:45:56;2.97;;;1.53;;
4547;SDS011;2286;51.570;7.090;2022-07-29T04:48:25;3.47;;;1.43;;
4547;SDS011;2286;51.570;7.090;2022-07-29T04:50:52;2.93;;;1.80;;
4547;SDS011;2286;51.570;7.090;2022-07-29T04:53:19;2.57;;;1.40;;
4547;SDS011;2286;51.570;7.090;2022-07-29T04:55:46;2.93;;;1.60;;
4547;SDS011;2286;51.570;7.090;2022-07-29T04:58:12;2.80;;;1.60;;
4547;SDS011;2286;51.570;7.090;2022-07-29T05:00:39;4.53;;;1.67;;
4547;SDS011;2286;51.570;7.090;2022-07-29T05:03:06;3.63;;;1.60;;
4547;SDS011;2286;51.570;7.090;2022-07-29T05:05:34;4.20;;;1.73;;
4547;SDS011;2286;51.570;7.090;2022-07-29T05:08:01;2.90;;;1.67;;
4547;SDS011;2286;51.570;7.090;2022-07-29T05:10:28;3.40;;;1.83;;
4547;SDS011;2286;51.570;7.090;2022-07-29T05:12:55;2.07;;;1.60;;
4547;SDS011;2286;51.570;7.090;2022-07-29T05:15:22;3.47;;;1.50;;
4547;SDS011;2286;51.570;7.090;2022-07-29T05:17:49;2.67;;;1.10;;
4547;SDS011;2286;51.570;7.090;2022-07-29T05:20:16;2.70;;;1.63;;
4547;SDS011;2286;51.570;7.090;2022-07-29T05:22:45;5.50;;;1.87;;
4547;SDS011;2286;51.570;7.090;2022-07-29T05:25:12;4.90;;;1.30;;
4547;SDS011;2286;51.570;7.090;2022-07-29T05:27:39;3.80;;;1.63;;
4547;SDS011;2286;51.570;7.090;2022-07-29T05:30:06;3.40;;;1.70;;
4547;SDS011;2286;51.570;7.090;2022-07-29T05:32:34;5.27;;;1.70;;
4547;SDS011;2286;51.570;7.090;2022-07-29T05:35:01;2.70;;;1.40;;
4547;SDS011;2286;51.570;7.090;2022-07-29T05:37:27;4.40;;;1.87;;
4547;SDS011;2286;51.570;7.090;2022-07-29T05:39:56;1.93;;;1.70;;
4547;SDS011;2286;51.570;7.090;2022-07-29T05:42:23;6.00;;;1.80;;
4547;SDS011;2286;51.570;7.090;2022-07-29T05:44:50;2.57;;;1.80;;
4547;SDS011;2286;51.570;7.090;2022-07-29T05:47:16;4.60;;;1.97;;
4547;SDS011;2286;51.570;7.090;2022-07-29T05:49:43;2.10;;;1.63;;
4547;SDS011;2286;51.570;7.090;2022-07-29T05:52:11;7.90;;;2.30;;
4547;SDS011;2286;51.570;7.090;2022-07-29T05:54:38;4.73;;;1.90;;
4547;SDS011;2286;51.570;7.090;2022-07-29T05:57:07;3.83;;;1.80;;
4547;SDS011;2286;51.570;7.090;2022-07-29T05:59:35;4.53;;;2.00;;
4547;SDS011;2286;51.570;7.090;2022-07-29T06:02:02;2.90;;;2.60;;
4547;SDS011;2286;51.570;7.090;2022-07-29T06:04:30;3.10;;;2.47;;
4547;SDS011;2286;51.570;7.090;2022-07-29T06:06:57;2.47;;;1.93;;
4547;SDS011;2286;51.570;7.090;2022-07-29T06:09:24;5.93;;;2.33;;
4547;SDS011;2286;51.570;7.090;2022-07-29T06:11:50;3.10;;;2.00;;
4547;SDS011;2286;51.570;7.090;2022-07-29T06:14:19;4.50;;;2.40;;
4547;SDS011;2286;51.570;7.090;2022-07-29T06:16:46;3.33;;;2.73;;
4547;SDS011;2286;51.570;7.090;2022-07-29T06:19:12;3.87;;;2.93;;
4547;SDS011;2286;51.570;7.090;2022-07-29T06:21:41;5.50;;;2.60;;
4547;SDS011;2286;51.570;7.090;2022-07-29T06:24:08;5.20;;;2.70;;
4547;SDS011;2286;51.570;7.090;2022-07-29T06:26:36;4.07;;;2.77;;
4547;SDS011;2286;51.570;7.090;2022-07-29T06:29:03;2.97;;;2.67;;
4547;SDS011;2286;51.570;7.090;2022-07-29T06:31:32;4.23;;;2.50;;
4547;SDS011;2286;51.570;7.090;2022-07-29T06:33:58;6.03;;;2.57;;
4547;SDS011;2286;51.570;7.090;2022-07-29T06:36:25;5.03;;;2.83;;
4547;SDS011;2286;51.570;7.090;2022-07-29T06:38:52;5.63;;;2.43;;
4547;SDS011;2286;51.570;7.090;2022-07-29T06:41:19;3.30;;;2.67;;
4547;SDS011;2286;51.570;7.090;2022-07-29T06:43:47;3.93;;;2.30;;
4547;SDS011;2286;51.570;7.090;2022-07-29T06:46:17;4.07;;;2.43;;
4547;SDS011;2286;51.570;7.090;2022-07-29T06:48:45;6.17;;;2.50;;
4547;SDS011;2286;51.570;7.090;2022-07-29T06:51:13;3.03;;;1.97;;
4547;SDS011;2286;51.570;7.090;2022-07-29T06:53:41;4.03;;;1.90;;
4547;SDS011;2286;51.570;7.090;2022-07-29T06:56:08;5.00;;;2.20;;
4547;SDS011;2286;51.570;7.090;2022-07-29T06:58:37;5.03;;;2.10;;
4547;SDS011;2286;51.570;7.090;2022-07-29T07:01:04;2.40;;;2.20;;
4547;SDS011;2286;51.570;7.090;2022-07-29T07:03:32;2.73;;;2.27;;
4547;SDS011;2286;51.570;7.090;2022-07-29T07:06:01;2.77;;;2.30;;
4547;SDS011;2286;51.570;7.090;2022-07-29T07:08:28;8.03;;;2.30;;
4547;SDS011;2286;51.570;7.090;2022-07-29T07:10:55;2.90;;;1.97;;
4547;SDS011;2286;51.570;7.090;2022-07-29T07:13:22;4.10;;;2.30;;
4547;SDS011;2286;51.570;7.090;2022-07-29T07:15:49;3.30;;;2.00;;
4547;SDS011;2286;51.570;7.090;2022-07-29T07:18:17;9.27;;;2.27;;
4547;SDS011;2286;51.570;7.090;2022-07-29T07:20:44;4.53;;;2.40;;
4547;SDS011;2286;51.570;7.090;2022-07-29T07:23:13;8.80;;;2.40;;
4547;SDS011;2286;51.570;7.090;2022-07-29T07:25:40;3.33;;;2.67;;
4547;SDS011;2286;51.570;7.090;2022-07-29T07:28:08;7.07;;;2.47;;
4547;SDS011;2286;51.570;7.090;2022-07-29T07:30:35;5.00;;;2.43;;
4547;SDS011;2286;51.570;7.090;2022-07-29T07:33:02;4.43;;;2.23;;
4547;SDS011;2286;51.570;7.090;2022-07-29T07:35:29;2.43;;;2.23;;
4547;SDS011;2286;51.570;7.090;2022-07-29T07:37:56;5.70;;;2.80;;
4547;SDS011;2286;51.570;7.090;2022-07-29T07:40:25;3.17;;;2.30;;
4547;SDS011;2286;51.570;7.090;2022-07-29T07:42:52;4.87;;;2.70;;
4547;SDS011;2286;51.570;7.090;2022-07-29T07:45:19;5.33;;;2.60;;
4547;SDS011;2286;51.570;7.090;2022-07-29T07:47:45;5.93;;;2.80;;
4547;SDS011;2286;51.570;7.090;2022-07-29T07:50:12;4.10;;;2.00;;
4547;SDS011;2286;51.570;7.090;2022-07-29T07:52:46;2.37;;;2.17;;
4547;SDS011;2286;51.570;7.090;2022-07-29T07:55:14;7.00;;;2.50;;
4547;SDS011;2286;51.570;7.090;2022-07-29T07:57:42;2.50;;;2.30;;
4547;SDS011;2286;51.570;7.090;2022-07-29T08:00:10;4.20;;;2.40;;
4547;SDS011;2286;51.570;7.090;2022-07-29T08:02:38;4.47;;;2.17;;
4547;SDS011;2286;51.570;7.090;2022-07-29T08:05:05;3.50;;;2.17;;
4547;SDS011;2286;51.570;7.090;2022-07-29T08:07:33;4.40;;;2.40;;
4547;SDS011;2286;51.570;7.090;2022-07-29T08:10:00;7.27;;;2.40;;
4547;SDS011;2286;51.570;7.090;2022-07-29T08:12:27;5.60;;;3.00;;
4547;SDS011;2286;51.570;7.090;2022-07-29T08:14:55;2.20;;;1.87;;
4547;SDS011;2286;51.570;7.090;2022-07-29T08:17:22;7.27;;;2.47;;
4547;SDS011;2286;51.570;7.090;2022-07-29T08:19:49;12.23;;;3.27;;
4547;SDS011;2286;51.570;7.090;2022-07-29T08:22:16;4.17;;;2.27;;
4547;SDS011;2286;51.570;7.090;2022-07-29T08:24:43;4.73;;;2.40;;
4547;SDS011;2286;51.570;7.090;2022-07-29T08:27:17;4.83;;;2.33;;
4547;SDS011;2286;51.570;7.090;2022-07-29T08:29:44;3.10;;;2.37;;
4547;SDS011;2286;51.570;7.090;2022-07-29T08:32:13;5.60;;;2.27;;
4547;SDS011;2286;51.570;7.090;2022-07-29T08:34:40;3.10;;;2.17;;
4547;SDS011;2286;51.570;7.090;2022-07-29T08:37:07;3.50;;;2.00;;
4547;SDS011;2286;51.570;7.090;2022-07-29T08:39:34;7.27;;;2.43;;
4547;SDS011;2286;51.570;7.090;2022-07-29T08:42:01;3.33;;;2.33;;
4547;SDS011;2286;51.570;7.090;2022-07-29T08:44:28;4.67;;;2.60;;
4547;SDS011;2286;51.570;7.090;2022-07-29T08:46:55;10.60;;;3.03;;
4547;SDS011;2286;51.570;7.090;2022-07-29T08:49:23;7.37;;;2.50;;
4547;SDS011;2286;51.570;7.090;2022-07-29T08:51:50;5.23;;;2.57;;
4547;SDS011;2286;51.570;7.090;2022-07-29T08:54:19;7.77;;;2.27;;
4547;SDS011;2286;51.570;7.090;2022-07-29T08:56:50;5.00;;;2.57;;
4547;SDS011;2286;51.570;7.090;2022-07-29T08:59:17;3.90;;;2.00;;
4547;SDS011;2286;51.570;7.090;2022-07-29T09:01:46;3.97;;;2.10;;
4547;SDS011;2286;51.570;7.090;2022-07-29T09:04:14;2.63;;;2.00;;
4547;SDS011;2286;51.570;7.090;2022-07-29T09:06:44;4.93;;;2.20;;
4547;SDS011;2286;51.570;7.090;2022-07-29T09:09:13;6.63;;;2.70;;
4547;SDS011;2286;51.570;7.090;2022-07-29T09:11:40;3.30;;;2.23;;
4547;SDS011;2286;51.570;7.090;2022-07-29T09:14:08;5.33;;;2.30;;
4547;SDS011;2286;51.570;7.090;2022-07-29T09:16:48;5.53;;;2.30;;
4547;SDS011;2286;51.570;7.090;2022-07-29T09:19:19;3.53;;;2.30;;
4547;SDS011;2286;51.570;7.090;2022-07-29T09:21:51;5.70;;;2.83;;
4547;SDS011;2286;51.570;7.090;2022-07-29T09:24:26;3.17;;;1.70;;
4547;SDS011;2286;51.570;7.090;2022-07-29T09:27:03;4.33;;;1.83;;
4547;SDS011;2286;51.570;7.090;2022-07-29T09:29:35;6.67;;;2.23;;
4547;SDS011;2286;51.570;7.090;2022-07-29T09:32:02;3.73;;;2.00;;
4547;SDS011;2286;51.570;7.090;2022-07-29T09:34:34;5.07;;;2.30;;
4547;SDS011;2286;51.570;7.090;2022-07-29T09:37:02;4.23;;;2.20;;
4547;SDS011;2286;51.570;7.090;2022-07-29T09:39:31;4.50;;;2.20;;
4547;SDS011;2286;51.570;7.090;2022-07-29T09:42:00;3.90;;;2.43;;
4547;SDS011;2286;51.570;7.090;2022-07-29T09:44:40;5.00;;;2.93;;
4547;SDS011;2286;51.570;7.090;2022-07-29T09:47:08;6.23;;;2.90;;
4547;SDS011;2286;51.570;7.090;2022-07-29T09:49:36;3.60;;;2.60;;
4547;SDS011;2286;51.570;7.090;2022-07-29T09:52:19;5.47;;;2.70;;
4547;SDS011;2286;51.570;7.090;2022-07-29T09:54:47;3.60;;;2.40;;
4547;SDS011;2286;51.570;7.090;2022-07-29T09:57:26;3.40;;;2.43;;
4547;SDS011;2286;51.570;7.090;2022-07-29T09:59:57;5.57;;;2.73;;
4547;SDS011;2286;51.570;7.090;2022-07-29T10:02:29;4.93;;;3.20;;
4547;SDS011;2286;51.570;7.090;2022-07-29T10:04:58;5.83;;;3.70;;
4547;SDS011;2286;51.570;7.090;2022-07-29T10:07:27;4.00;;;2.80;;
4547;SDS011;2286;51.570;7.090;2022-07-29T10:10:10;4.83;;;3.00;;
4547;SDS011;2286;51.570;7.090;2022-07-29T10:12:48;4.53;;;3.20;;
4547;SDS011;2286;51.570;7.090;2022-07-29T10:15:16;5.63;;;4.33;;
4547;SDS011;2286;51.570;7.090;2022-07-29T10:17:44;5.23;;;3.30;;
4547;SDS011;2286;51.570;7.090;2022-07-29T10:20:11;4.13;;;3.70;;
4547;SDS011;2286;51.570;7.090;2022-07-29T10:22:39;4.87;;;4.40;;
4547;SDS011;2286;51.570;7.090;2022-07-29T10:25:07;9.33;;;4.97;;
4547;SDS011;2286;51.570;7.090;2022-07-29T10:27:35;5.77;;;4.03;;
4547;SDS011;2286;51.570;7.090;2022-07-29T10:30:03;7.30;;;5.03;;
4547;SDS011;2286;51.570;7.090;2022-07-29T10:32:36;7.10;;;4.50;;
4547;SDS011;2286;51.570;7.090;2022-07-29T10:35:27;6.70;;;5.20;;
4547;SDS011;2286;51.570;7.090;2022-07-29T10:38:07;8.13;;;4.40;;
4547;SDS011;2286;51.570;7.090;2022-07-29T10:40:50;6.10;;;4.50;;
4547;SDS011;2286;51.570;7.090;2022-07-29T10:43:42;7.13;;;4.40;;
4547;SDS011;2286;51.570;7.090;2022-07-29T10:46:12;10.47;;;4.10;;
4547;SDS011;2286;51.570;7.090;2022-07-29T10:51:53;7.20;;;4.40;;
4547;SDS011;2286;51.570;7.090;2022-07-29T10:54:39;5.10;;;3.93;;
4547;SDS011;2286;51.570;7.090;2022-07-29T10:57:15;4.87;;;3.70;;
4547;SDS011;2286;51.570;7.090;2022-07-29T10:59:51;6.40;;;3.43;;
4547;SDS011;2286;51.570;7.090;2022-07-29T11:02:57;7.07;;;3.87;;
4547;SDS011;2286;51.570;7.090;2022-07-29T11:05:25;4.17;;;3.67;;
4547;SDS011;2286;51.570;7.090;2022-07-29T11:10:46;4.80;;;3.97;;
4547;SDS011;2286;51.570;7.090;2022-07-29T11:16:11;3.30;;;3.10;;
4547;SDS011;2286;51.570;7.090;2022-07-29T11:21:40;5.43;;;4.00;;
4547;SDS011;2286;51.570;7.090;2022-07-29T11:24:11;4.63;;;3.83;;
4547;SDS011;2286;51.570;7.090;2022-07-29T11:26:40;8.20;;;3.23;;
4547;SDS011;2286;51.570;7.090;2022-07-29T11:29:16;5.37;;;3.60;;
4547;SDS011;2286;51.570;7.090;2022-07-29T11:31:48;6.37;;;3.27;;
4547;SDS011;2286;51.570;7.090;2022-07-29T11:34:22;4.80;;;3.43;;
4547;SDS011;2286;51.570;7.090;2022-07-29T11:40:12;4.77;;;2.73;;
4547;SDS011;2286;51.570;7.090;2022-07-29T11:42:45;5.93;;;2.97;;
4547;SDS011;2286;51.570;7.090;2022-07-29T11:45:17;6.47;;;2.70;;
4547;SDS011;2286;51.570;7.090;2022-07-29T11:48:15;5.50;;;2.60;;
4547;SDS011;2286;51.570;7.090;2022-07-29T11:50:43;3.13;;;2.53;;
4547;SDS011;2286;51.570;7.090;2022-07-29T11:53:11;7.87;;;2.87;;
4547;SDS011;2286;51.570;7.090;2022-07-29T11:55:39;5.50;;;2.87;;
4547;SDS011;2286;51.570;7.090;2022-07-29T11:58:08;3.80;;;2.70;;
4547;SDS011;2286;51.570;7.090;2022-07-29T12:00:35;5.13;;;3.27;;
4547;SDS011;2286;51.570;7.090;2022-07-29T12:03:05;9.07;;;2.70;;
4547;SDS011;2286;51.570;7.090;2022-07-29T12:05:39;3.67;;;2.40;;
4547;SDS011;2286;51.570;7.090;2022-07-29T12:08:07;5.83;;;3.07;;
4547;SDS011;2286;51.570;7.090;2022-07-29T12:10:36;7.33;;;2.87;;
4547;SDS011;2286;51.570;7.090;2022-07-29T12:13:04;7.10;;;2.50;;
4547;SDS011;2286;51.570;7.090;2022-07-29T12:15:33;3.43;;;2.73;;
4547;SDS011;2286;51.570;7.090;2022-07-29T12:18:09;5.97;;;3.00;;
4547;SDS011;2286;51.570;7.090;2022-07-29T12:20:46;6.00;;;2.30;;
4547;SDS011;2286;51.570;7.090;2022-07-29T12:23:14;7.97;;;3.17;;
4547;SDS011;2286;51.570;7.090;2022-07-29T12:25:42;5.67;;;2.60;;
4547;SDS011;2286;51.570;7.090;2022-07-29T12:28:10;6.70;;;2.27;;
4547;SDS011;2286;51.570;7.090;2022-07-29T12:30:41;6.97;;;2.27;;
4547;SDS011;2286;51.570;7.090;2022-07-29T12:33:14;7.63;;;2.40;;
4547;SDS011;2286;51.570;7.090;2022-07-29T12:35:46;2.00;;;1.80;;
4547;SDS011;2286;51.570;7.090;2022-07-29T12:38:15;2.57;;;2.23;;
4547;SDS011;2286;51.570;7.090;2022-07-29T12:40:43;4.20;;;1.83;;
4547;SDS011;2286;51.570;7.090;2022-07-29T12:43:12;3.30;;;2.53;;
4547;SDS011;2286;51.570;7.090;2022-07-29T12:45:42;5.23;;;2.23;;
4547;SDS011;2286;51.570;7.090;2022-07-29T12:48:11;4.73;;;2.40;;
4547;SDS011;2286;51.570;7.090;2022-07-29T12:50:51;4.20;;;2.17;;
4547;SDS011;2286;51.570;7.090;2022-07-29T12:53:19;7.07;;;2.13;;
4547;SDS011;2286;51.570;7.090;2022-07-29T12:55:47;6.63;;;2.13;;
4547;SDS011;2286;51.570;7.090;2022-07-29T12:58:29;3.57;;;2.17;;
4547;SDS011;2286;51.570;7.090;2022-07-29T13:01:03;4.17;;;2.83;;
4547;SDS011;2286;51.570;7.090;2022-07-29T13:03:42;4.10;;;2.37;;
4547;SDS011;2286;51.570;7.090;2022-07-29T13:08:58;3.87;;;2.43;;
4547;SDS011;2286;51.570;7.090;2022-07-29T13:11:27;3.27;;;2.20;;
4547;SDS011;2286;51.570;7.090;2022-07-29T13:13:55;4.07;;;2.67;;
4547;SDS011;2286;51.570;7.090;2022-07-29T13:16:23;4.70;;;2.60;;
4547;SDS011;2286;51.570;7.090;2022-07-29T13:19:02;3.73;;;2.83;;
4547;SDS011;2286;51.570;7.090;2022-07-29T13:21:34;4.90;;;2.70;;
4547;SDS011;2286;51.570;7.090;2022-07-29T13:24:01;2.93;;;2.60;;
4547;SDS011;2286;51.570;7.090;2022-07-29T13:26:29;4.60;;;2.33;;
4547;SDS011;2286;51.570;7.090;2022-07-29T13:28:56;5.43;;;2.60;;
4547;SDS011;2286;51.570;7.090;2022-07-29T13:31:24;4.33;;;2.40;;
4547;SDS011;2286;51.570;7.090;2022-07-29T13:33:52;2.33;;;2.13;;
4547;SDS011;2286;51.570;7.090;2022-07-29T13:36:19;4.97;;;3.07;;
4547;SDS011;2286;51.570;7.090;2022-07-29T13:38:46;4.77;;;2.20;;
4547;SDS011;2286;51.570;7.090;2022-07-29T13:41:12;4.60;;;2.77;;
4547;SDS011;2286;51.570;7.090;2022-07-29T13:43:39;5.80;;;2.60;;
4547;SDS011;2286;51.570;7.090;2022-07-29T13:46:06;3.70;;;2.40;;
4547;SDS011;2286;51.570;7.090;2022-07-29T13:48:34;3.07;;;2.73;;
4547;SDS011;2286;51.570;7.090;2022-07-29T13:51:01;3.77;;;2.80;;
4547;SDS011;2286;51.570;7.090;2022-07-29T13:53:28;3.63;;;3.20;;
4547;SDS011;2286;51.570;7.090;2022-07-29T13:55:55;6.87;;;2.90;;
4547;SDS011;2286;51.570;7.090;2022-07-29T13:58:22;6.80;;;2.57;;
4547;SDS011;2286;51.570;7.090;2022-07-29T14:00:49;3.93;;;2.80;;
4547;SDS011;2286;51.570;7.090;2022-07-29T14:03:16;3.20;;;2.60;;
4547;SDS011;2286;51.570;7.090;2022-07-29T14:05:44;7.03;;;2.90;;
4547;SDS011;2286;51.570;7.090;2022-07-29T14:08:11;7.57;;;3.03;;
4547;SDS011;2286;51.570;7.090;2022-07-29T14:10:38;4.93;;;3.17;;
4547;SDS011;2286;51.570;7.090;2022-07-29T14:13:05;3.97;;;2.90;;
4547;SDS011;2286;51.570;7.090;2022-07-29T14:15:32;4.13;;;2.47;;
4547;SDS011;2286;51.570;7.090;2022-07-29T14:17:59;4.27;;;3.23;;
4547;SDS011;2286;51.570;7.090;2022-07-29T14:20:27;3.43;;;2.87;;
4547;SDS011;2286;51.570;7.090;2022-07-29T14:22:56;8.17;;;2.97;;
4547;SDS011;2286;51.570;7.090;2022-07-29T14:25:23;5.57;;;3.90;;
4547;SDS011;2286;51.570;7.090;2022-07-29T14:27:50;4.13;;;3.03;;
4547;SDS011;2286;51.570;7.090;2022-07-29T14:30:19;4.07;;;3.40;;
4547;SDS011;2286;51.570;7.090;2022-07-29T14:32:46;10.90;;;3.40;;
4547;SDS011;2286;51.570;7.090;2022-07-29T14:35:13;5.50;;;3.00;;
4547;SDS011;2286;51.570;7.090;2022-07-29T14:37:40;4.73;;;3.57;;
4547;SDS011;2286;51.570;7.090;2022-07-29T14:40:09;3.17;;;2.87;;
4547;SDS011;2286;51.570;7.090;2022-07-29T14:42:37;3.43;;;3.10;;
4547;SDS011;2286;51.570;7.090;2022-07-29T14:45:05;6.00;;;2.83;;
4547;SDS011;2286;51.570;7.090;2022-07-29T14:47:33;4.37;;;3.60;;
4547;SDS011;2286;51.570;7.090;2022-07-29T14:50:01;6.53;;;3.20;;
4547;SDS011;2286;51.570;7.090;2022-07-29T14:52:28;4.80;;;2.87;;
4547;SDS011;2286;51.570;7.090;2022-07-29T14:54:55;5.10;;;3.43;;
4547;SDS011;2286;51.570;7.090;2022-07-29T14:57:23;4.03;;;3.70;;
4547;SDS011;2286;51.570;7.090;2022-07-29T14:59:50;5.93;;;3.10;;
4547;SDS011;2286;51.570;7.090;2022-07-29T15:02:17;6.80;;;3.27;;
4547;SDS011;2286;51.570;7.090;2022-07-29T15:04:44;4.87;;;2.90;;
4547;SDS011;2286;51.570;7.090;2022-07-29T15:07:13;3.60;;;3.30;;
4547;SDS011;2286;51.570;7.090;2022-07-29T15:09:40;4.30;;;2.83;;
4547;SDS011;2286;51.570;7.090;2022-07-29T15:12:07;6.17;;;3.67;;
4547;SDS011;2286;51.570;7.090;2022-07-29T15:14:36;6.20;;;4.33;;
4547;SDS011;2286;51.570;7.090;2022-07-29T15:17:03;4.27;;;3.30;;
4547;SDS011;2286;51.570;7.090;2022-07-29T15:19:30;3.23;;;2.90;;
4547;SDS011;2286;51.570;7.090;2022-07-29T15:21:57;3.23;;;2.63;;
4547;SDS011;2286;51.570;7.090;2022-07-29T15:24:24;3.63;;;3.10;;
4547;SDS011;2286;51.570;7.090;2022-07-29T15:26:51;8.20;;;3.13;;
4547;SDS011;2286;51.570;7.090;2022-07-29T15:29:18;5.07;;;3.23;;
4547;SDS011;2286;51.570;7.090;2022-07-29T15:31:46;4.30;;;3.23;;
4547;SDS011;2286;51.570;7.090;2022-07-29T15:34:13;9.23;;;2.97;;
4547;SDS011;2286;51.570;7.090;2022-07-29T15:36:40;3.07;;;2.77;;
4547;SDS011;2286;51.570;7.090;2022-07-29T15:39:07;6.53;;;3.20;;
4547;SDS011;2286;51.570;7.090;2022-07-29T15:41:34;3.90;;;2.80;;
4547;SDS011;2286;51.570;7.090;2022-07-29T15:44:01;6.43;;;3.33;;
4547;SDS011;2286;51.570;7.090;2022-07-29T15:46:28;4.27;;;3.00;;